createdAt,value
2023-05-13T00:02:25.807Z,-68
2023-05-13T00:04:54.489Z,-67
2023-05-13T00:07:23.026Z,-67
2023-05-13T00:09:51.551Z,-68
2023-05-13T00:12:19.614Z,-68
2023-05-13T00:14:48.112Z,-67
2023-05-13T00:17:16.300Z,-67
2023-05-13T00:19:44.794Z,-66
2023-05-13T00:22:13.276Z,-67
2023-05-13T00:24:41.373Z,-67
2023-05-13T00:27:10.223Z,-67
2023-05-13T00:29:40.363Z,-68
2023-05-13T00:32:08.815Z,-66
2023-05-13T00:34:37.343Z,-67
2023-05-13T00:37:06.315Z,-66
2023-05-13T00:39:34.420Z,-67
2023-05-13T00:42:04.465Z,-67
2023-05-13T00:44:32.595Z,-67
2023-05-13T00:47:00.947Z,-67
2023-05-13T00:49:29.119Z,-67
2023-05-13T00:51:58.155Z,-67
2023-05-13T00:54:26.622Z,-67
2023-05-13T00:56:56.832Z,-67
2023-05-13T00:59:29.001Z,-67
2023-05-13T01:02:08.901Z,-68
2023-05-13T01:05:18.935Z,-67
2023-05-13T01:08:21.484Z,-67
2023-05-13T01:11:00.064Z,-67
2023-05-13T01:13:33.136Z,-67
2023-05-13T01:16:41.923Z,-67
2023-05-13T01:19:31.927Z,-67
2023-05-13T01:22:00.445Z,-67
2023-05-13T01:24:28.568Z,-67
2023-05-13T01:26:56.691Z,-68
2023-05-13T01:29:25.419Z,-67
2023-05-13T01:31:55.233Z,-67
2023-05-13T01:34:24.935Z,-67
2023-05-13T01:36:53.489Z,-67
2023-05-13T01:39:22.324Z,-68
2023-05-13T01:41:50.480Z,-67
2023-05-13T01:44:18.929Z,-67
2023-05-13T01:46:50.503Z,-67
2023-05-13T01:49:18.921Z,-67
2023-05-13T01:51:47.051Z,-67
2023-05-13T01:54:15.513Z,-67
2023-05-13T01:56:43.561Z,-67
2023-05-13T01:59:12.152Z,-67
2023-05-13T02:01:41.216Z,-67
2023-05-13T02:04:09.415Z,-68
2023-05-13T02:06:37.559Z,-68
2023-05-13T02:09:05.785Z,-67
2023-05-13T02:11:33.871Z,-68
2023-05-13T02:14:02.057Z,-68
2023-05-13T02:16:30.217Z,-67
2023-05-13T02:18:58.812Z,-67
2023-05-13T02:21:27.280Z,-67
2023-05-13T02:23:55.581Z,-67
2023-05-13T02:26:24.020Z,-68
2023-05-13T02:28:52.323Z,-67
2023-05-13T02:31:20.844Z,-66
2023-05-13T02:33:49.322Z,-67
2023-05-13T02:36:17.847Z,-66
2023-05-13T02:38:45.919Z,-68
2023-05-13T02:41:14.480Z,-67
2023-05-13T02:43:42.876Z,-67
2023-05-13T02:46:11.411Z,-67
2023-05-13T02:48:39.922Z,-67
2023-05-13T02:51:09.586Z,-67
2023-05-13T02:53:37.664Z,-67
2023-05-13T02:56:06.439Z,-67
2023-05-13T02:58:35.721Z,-67
2023-05-13T03:01:04.128Z,-67
2023-05-13T03:03:32.902Z,-67
2023-05-13T03:06:01.652Z,-67
2023-05-13T03:08:30.138Z,-67
2023-05-13T03:10:59.401Z,-67
2023-05-13T03:13:27.490Z,-67
2023-05-13T03:15:55.693Z,-67
2023-05-13T03:18:23.924Z,-67
2023-05-13T03:20:52.071Z,-67
2023-05-13T03:23:20.518Z,-67
2023-05-13T03:25:48.986Z,-67
2023-05-13T03:28:17.508Z,-66
2023-05-13T03:30:45.616Z,-67
2023-05-13T03:33:14.091Z,-67
2023-05-13T03:35:42.202Z,-66
2023-05-13T03:38:10.665Z,-66
2023-05-13T03:40:39.110Z,-67
2023-05-13T03:43:07.533Z,-67
2023-05-13T03:45:36.067Z,-67
2023-05-13T03:48:04.672Z,-67
2023-05-13T03:50:33.336Z,-66
2023-05-13T03:53:01.416Z,-67
2023-05-13T03:55:29.851Z,-67
2023-05-13T03:57:57.952Z,-67
2023-05-13T04:00:26.500Z,-67
2023-05-13T04:02:55.113Z,-68
2023-05-13T04:05:23.263Z,-69
2023-05-13T04:07:51.902Z,-72
2023-05-13T04:10:20.362Z,-71
2023-05-13T04:12:49.152Z,-70
2023-05-13T04:15:17.616Z,-72
2023-05-13T04:17:46.099Z,-71
2023-05-13T04:20:14.349Z,-72
2023-05-13T04:22:42.445Z,-73
2023-05-13T04:25:11.396Z,-72
2023-05-13T04:27:39.924Z,-72
2023-05-13T04:30:09.051Z,-72
2023-05-13T04:32:37.409Z,-71
2023-05-13T04:35:06.757Z,-73
2023-05-13T04:37:35.411Z,-70
2023-05-13T04:40:03.934Z,-70
2023-05-13T04:42:32.562Z,-73
2023-05-13T04:45:01.063Z,-71
2023-05-13T04:47:29.319Z,-71
2023-05-13T04:49:57.430Z,-70
2023-05-13T04:52:25.984Z,-72
2023-05-13T04:54:54.077Z,-71
2023-05-13T04:57:22.657Z,-72
2023-05-13T04:59:51.169Z,-72
2023-05-13T05:02:19.660Z,-72
2023-05-13T05:04:49.405Z,-72
2023-05-13T05:07:17.674Z,-71
2023-05-13T05:09:46.225Z,-71
2023-05-13T05:12:14.977Z,-71
2023-05-13T05:14:43.483Z,-73
2023-05-13T05:17:12.079Z,-72
2023-05-13T05:19:40.941Z,-71
2023-05-13T05:22:09.067Z,-72
2023-05-13T05:24:37.615Z,-72
2023-05-13T05:27:06.261Z,-72
2023-05-13T05:29:34.740Z,-72
2023-05-13T05:32:03.355Z,-72
2023-05-13T05:34:31.829Z,-72
2023-05-13T05:37:00.409Z,-72
2023-05-13T05:39:28.859Z,-72
2023-05-13T05:41:57.383Z,-72
2023-05-13T05:44:25.887Z,-71
2023-05-13T05:46:54.922Z,-71
2023-05-13T05:49:23.733Z,-72
2023-05-13T05:51:52.235Z,-71
2023-05-13T05:54:23.584Z,-73
2023-05-13T05:56:52.091Z,-72
2023-05-13T05:59:20.607Z,-71
2023-05-13T06:01:49.093Z,-71
2023-05-13T06:04:17.638Z,-72
2023-05-13T06:06:46.157Z,-73
2023-05-13T06:09:14.730Z,-73
2023-05-13T06:11:43.203Z,-72
2023-05-13T06:14:11.651Z,-72
2023-05-13T06:16:40.191Z,-72
2023-05-13T06:19:08.773Z,-73
2023-05-13T06:21:37.233Z,-72
2023-05-13T06:24:05.854Z,-72
2023-05-13T06:26:34.310Z,-73
2023-05-13T06:29:03.124Z,-72
2023-05-13T06:31:31.666Z,-73
2023-05-13T06:34:02.921Z,-74
2023-05-13T06:36:31.927Z,-72
2023-05-13T06:39:01.080Z,-74
2023-05-13T06:41:29.566Z,-72
2023-05-13T06:43:58.018Z,-72
2023-05-13T06:46:26.588Z,-72
2023-05-13T06:48:57.864Z,-72
2023-05-13T06:51:29.097Z,-72
2023-05-13T06:53:57.810Z,-72
2023-05-13T06:56:26.489Z,-72
2023-05-13T06:58:55.196Z,-73
2023-05-13T07:01:23.774Z,-73
2023-05-13T07:03:52.366Z,-72
2023-05-13T07:06:20.894Z,-71
2023-05-13T07:08:49.519Z,-70
2023-05-13T07:11:18.073Z,-70
2023-05-13T07:13:47.216Z,-71
2023-05-13T07:16:16.004Z,-72
2023-05-13T07:18:44.638Z,-71
2023-05-13T07:21:14.245Z,-71
2023-05-13T07:23:44.348Z,-71
2023-05-13T07:26:13.369Z,-72
2023-05-13T07:28:41.866Z,-72
2023-05-13T07:31:10.446Z,-72
2023-05-13T07:33:38.971Z,-71
2023-05-13T07:36:07.565Z,-71
2023-05-13T07:38:36.084Z,-72
2023-05-13T07:41:04.595Z,-70
2023-05-13T07:43:35.131Z,-72
2023-05-13T07:46:04.252Z,-72
2023-05-13T07:48:32.790Z,-72
2023-05-13T07:51:04.412Z,-71
2023-05-13T07:53:32.914Z,-73
2023-05-13T07:56:01.511Z,-72
2023-05-13T07:58:30.032Z,-72
2023-05-13T08:00:58.575Z,-71
2023-05-13T08:03:27.673Z,-72
2023-05-13T08:05:56.358Z,-72
2023-05-13T08:08:24.822Z,-72
2023-05-13T08:10:53.303Z,-72
2023-05-13T08:13:21.929Z,-73
2023-05-13T08:15:51.952Z,-72
2023-05-13T08:18:20.632Z,-73
2023-05-13T08:20:49.373Z,-73
2023-05-13T08:23:17.818Z,-74
2023-05-13T08:25:46.390Z,-73
2023-05-13T08:28:14.874Z,-72
2023-05-13T08:30:44.371Z,-71
2023-05-13T08:33:13.022Z,-72
2023-05-13T08:35:42.960Z,-72
2023-05-13T08:38:13.170Z,-71
2023-05-13T08:40:42.892Z,-72
2023-05-13T08:43:12.843Z,-71
2023-05-13T08:45:41.596Z,-72
2023-05-13T08:48:12.535Z,-71
2023-05-13T08:50:46.051Z,-72
2023-05-13T08:53:14.500Z,-71
2023-05-13T08:55:43.998Z,-71
2023-05-13T08:58:12.829Z,-71
2023-05-13T09:00:41.596Z,-72
2023-05-13T09:03:10.365Z,-72
2023-05-13T09:05:39.339Z,-71
2023-05-13T09:08:11.242Z,-74
2023-05-13T09:10:39.923Z,-70
2023-05-13T09:13:08.659Z,-71
2023-05-13T09:15:37.221Z,-72
2023-05-13T09:18:11.675Z,-71
2023-05-13T09:20:40.200Z,-73
2023-05-13T09:23:12.151Z,-72
2023-05-13T09:25:40.938Z,-73
2023-05-13T09:28:09.668Z,-72
2023-05-13T09:30:46.204Z,-72
2023-05-13T09:33:20.448Z,-72
2023-05-13T09:35:55.529Z,-72
2023-05-13T09:38:29.142Z,-72
2023-05-13T09:41:00.691Z,-72
2023-05-13T09:43:33.312Z,-72
2023-05-13T09:46:06.614Z,-71
2023-05-13T09:48:38.116Z,-73
2023-05-13T09:51:07.145Z,-72
2023-05-13T09:53:35.783Z,-73
2023-05-13T09:56:04.349Z,-72
2023-05-13T09:58:32.932Z,-72
2023-05-13T10:01:01.867Z,-72
2023-05-13T10:03:32.058Z,-70
2023-05-13T10:06:03.353Z,-70
2023-05-13T10:08:32.392Z,-70
2023-05-13T10:11:01.594Z,-70
2023-05-13T10:13:32.147Z,-70
2023-05-13T10:16:00.757Z,-70
2023-05-13T10:18:29.750Z,-70
2023-05-13T10:20:58.660Z,-70
2023-05-13T10:23:28.625Z,-70
2023-05-13T10:25:57.146Z,-70
2023-05-13T10:28:28.202Z,-70
2023-05-13T10:30:57.210Z,-70
2023-05-13T10:33:25.911Z,-70
2023-05-13T10:37:02.608Z,-70
2023-05-13T10:40:02.850Z,-70
2023-05-13T10:42:43.864Z,-70
2023-05-13T10:45:12.595Z,-70
2023-05-13T10:47:41.230Z,-70
2023-05-13T10:50:27.573Z,-70
2023-05-13T10:52:59.793Z,-70
2023-05-13T10:55:29.350Z,-70
2023-05-13T10:58:16.258Z,-70
2023-05-13T11:00:46.394Z,-70
2023-05-13T11:03:16.620Z,-70
2023-05-13T11:06:19.472Z,-70
2023-05-13T11:08:50.234Z,-70
2023-05-13T11:11:24.327Z,-70
2023-05-13T11:14:18.946Z,-70
2023-05-13T11:17:00.286Z,-70
2023-05-13T11:19:37.689Z,-70
2023-05-13T11:22:24.948Z,-70
2023-05-13T11:25:11.240Z,-70
2023-05-13T11:27:42.032Z,-70
2023-05-13T11:30:27.675Z,-71
2023-05-13T11:33:02.791Z,-70
2023-05-13T11:35:33.814Z,-70
2023-05-13T11:38:04.138Z,-70
2023-05-13T11:40:38.390Z,-70
2023-05-13T11:43:07.142Z,-70
2023-05-13T11:45:40.309Z,-71
2023-05-13T11:48:26.370Z,-70
2023-05-13T11:50:58.316Z,-70
2023-05-13T11:53:26.855Z,-70
2023-05-13T11:55:55.640Z,-70
2023-05-13T11:58:24.109Z,-70
2023-05-13T12:00:53.236Z,-70
2023-05-13T12:03:22.032Z,-70
2023-05-13T12:05:51.386Z,-70
2023-05-13T12:08:20.912Z,-70
2023-05-13T12:10:50.358Z,-70
2023-05-13T12:13:19.377Z,-70
2023-05-13T12:15:48.130Z,-70
2023-05-13T12:18:16.859Z,-71
2023-05-13T12:20:46.068Z,-70
2023-05-13T12:23:15.568Z,-70
2023-05-13T12:25:51.264Z,-70
2023-05-13T12:28:23.442Z,-70
2023-05-13T12:31:02.410Z,-70
2023-05-13T12:33:34.423Z,-70
2023-05-13T12:36:33.625Z,-70
2023-05-13T12:39:06.545Z,-70
2023-05-13T12:41:43.850Z,-70
2023-05-13T12:44:16.033Z,-70
2023-05-13T12:46:58.402Z,-70
2023-05-13T12:49:27.354Z,-70
2023-05-13T12:51:57.040Z,-70
2023-05-13T12:54:25.582Z,-70
2023-05-13T12:56:54.446Z,-70
2023-05-13T12:59:22.899Z,-70
2023-05-13T13:01:51.924Z,-70
2023-05-13T13:04:20.654Z,-70
2023-05-13T13:06:49.317Z,-70
2023-05-13T13:09:18.025Z,-70
2023-05-13T13:11:46.702Z,-70
2023-05-13T13:14:15.337Z,-69
2023-05-13T13:16:44.539Z,-70
2023-05-13T13:19:13.161Z,-70
2023-05-13T13:21:41.746Z,-70
2023-05-13T13:24:10.437Z,-70
2023-05-13T13:26:38.980Z,-70
2023-05-13T13:29:07.578Z,-70
2023-05-13T13:31:36.186Z,-70
2023-05-13T13:34:06.025Z,-70
2023-05-13T13:36:34.558Z,-70
2023-05-13T13:39:03.046Z,-70
2023-05-13T13:41:31.595Z,-70
2023-05-13T13:44:00.019Z,-70
2023-05-13T13:46:29.036Z,-70
2023-05-13T13:48:57.564Z,-70
2023-05-13T13:51:26.021Z,-70
2023-05-13T13:53:54.757Z,-70
2023-05-13T13:56:23.456Z,-70
2023-05-13T13:58:54.333Z,-70
2023-05-13T14:01:23.022Z,-70
2023-05-13T14:03:52.299Z,-70
2023-05-13T14:06:21.155Z,-70
2023-05-13T14:08:51.948Z,-70
2023-05-13T14:11:21.036Z,-70
2023-05-13T14:13:49.558Z,-70
2023-05-13T14:16:18.374Z,-70
2023-05-13T14:18:47.013Z,-70
2023-05-13T14:21:15.579Z,-70
2023-05-13T14:23:44.234Z,-70
2023-05-13T14:26:15.385Z,-70
2023-05-13T14:28:44.510Z,-69
2023-05-13T14:31:13.052Z,-70
2023-05-13T14:33:41.653Z,-70
2023-05-13T14:36:11.430Z,-70
2023-05-13T14:38:40.562Z,-70
2023-05-13T14:41:09.048Z,-70
2023-05-13T14:43:37.533Z,-70
2023-05-13T14:46:06.071Z,-70
2023-05-13T14:48:34.615Z,-70
2023-05-13T14:51:03.088Z,-70
2023-05-13T14:53:31.299Z,-70
2023-05-13T14:55:59.790Z,-70
2023-05-13T14:58:28.314Z,-70
2023-05-13T15:00:57.147Z,-70
2023-05-13T15:03:25.668Z,-70
2023-05-13T15:05:54.545Z,-70
2023-05-13T15:08:23.073Z,-70
2023-05-13T15:10:51.621Z,-70
2023-05-13T15:13:20.134Z,-70
2023-05-13T15:15:48.603Z,-70
2023-05-13T15:18:17.042Z,-70
2023-05-13T15:20:45.918Z,-70
2023-05-13T15:23:14.502Z,-70
2023-05-13T15:25:43.427Z,-70
2023-05-13T15:28:11.536Z,-70
2023-05-13T15:30:40.100Z,-70
2023-05-13T15:33:08.654Z,-70
2023-05-13T15:35:37.276Z,-70
2023-05-13T15:38:05.837Z,-70
2023-05-13T15:40:34.096Z,-70
2023-05-13T15:43:02.756Z,-70
2023-05-13T15:45:31.222Z,-70
2023-05-13T15:47:59.825Z,-70
2023-05-13T15:50:28.350Z,-70
2023-05-13T15:52:56.838Z,-70
2023-05-13T15:55:25.289Z,-70
2023-05-13T15:57:53.917Z,-70
2023-05-13T16:00:22.700Z,-70
2023-05-13T16:02:51.487Z,-70
2023-05-13T16:05:20.101Z,-70
2023-05-13T16:07:48.717Z,-69
2023-05-13T16:10:17.663Z,-69
2023-05-13T16:12:46.162Z,-69
2023-05-13T16:15:14.721Z,-69
2023-05-13T16:17:43.368Z,-69
2023-05-13T16:20:12.057Z,-69
2023-05-13T16:22:40.615Z,-69
2023-05-13T16:25:10.806Z,-69
2023-05-13T16:27:40.544Z,-69
2023-05-13T16:30:21.488Z,-72
2023-05-13T16:32:53.524Z,-71
2023-05-13T16:35:22.820Z,-71
2023-05-13T16:37:52.003Z,-71
2023-05-13T16:40:20.711Z,-72
2023-05-13T16:42:49.320Z,-74
2023-05-13T16:45:18.560Z,-73
2023-05-13T16:47:47.042Z,-73
2023-05-13T16:50:15.745Z,-72
2023-05-13T16:52:44.261Z,-74
2023-05-13T16:55:12.782Z,-73
2023-05-13T16:57:41.295Z,-73
2023-05-13T17:00:10.451Z,-73
2023-05-13T17:02:39.101Z,-73
2023-05-13T17:05:08.261Z,-72
2023-05-13T17:07:36.758Z,-74
2023-05-13T17:10:06.072Z,-73
2023-05-13T17:12:35.341Z,-74
2023-05-13T17:15:05.078Z,-74
2023-05-13T17:17:33.708Z,-74
2023-05-13T17:20:02.279Z,-73
2023-05-13T17:22:30.775Z,-73
2023-05-13T17:24:59.380Z,-74
2023-05-13T17:27:27.860Z,-73
2023-05-13T17:29:56.564Z,-73
2023-05-13T17:32:25.158Z,-74
2023-05-13T17:34:53.834Z,-76
2023-05-13T17:37:22.351Z,-73
2023-05-13T17:39:51.224Z,-73
2023-05-13T17:42:19.710Z,-73
2023-05-13T17:44:48.283Z,-73
2023-05-13T17:47:17.036Z,-73
2023-05-13T17:49:45.693Z,-74
2023-05-13T17:52:14.227Z,-74
2023-05-13T17:54:44.127Z,-74
2023-05-13T17:57:12.575Z,-74
2023-05-13T17:59:41.073Z,-74
2023-05-13T18:02:09.209Z,-74
2023-05-13T18:04:37.695Z,-73
2023-05-13T18:07:06.242Z,-74
2023-05-13T18:09:34.789Z,-73
2023-05-13T18:12:03.274Z,-73
2023-05-13T18:14:33.402Z,-73
2023-05-13T18:17:02.138Z,-74
2023-05-13T18:19:30.636Z,-73
2023-05-13T18:21:59.120Z,-73
2023-05-13T18:24:27.695Z,-74
2023-05-13T18:26:56.261Z,-74
2023-05-13T18:29:24.595Z,-73
2023-05-13T18:31:53.206Z,-73
2023-05-13T18:34:21.773Z,-74
2023-05-13T18:36:52.217Z,-74
2023-05-13T18:39:21.243Z,-74
2023-05-13T18:41:50.062Z,-73
2023-05-13T18:44:18.494Z,-73
2023-05-13T18:46:47.102Z,-74
2023-05-13T18:49:15.807Z,-74
2023-05-13T18:51:45.525Z,-74
2023-05-13T18:54:14.068Z,-74
2023-05-13T18:56:42.589Z,-74
2023-05-13T18:59:11.104Z,-73
2023-05-13T19:01:40.021Z,-73
2023-05-13T19:04:09.002Z,-73
2023-05-13T19:06:38.101Z,-74
2023-05-13T19:09:06.844Z,-74
2023-05-13T19:11:35.469Z,-74
2023-05-13T19:14:03.986Z,-74
2023-05-13T19:16:32.678Z,-74
2023-05-13T19:19:01.355Z,-73
2023-05-13T19:21:29.911Z,-73
2023-05-13T19:23:58.706Z,-74
2023-05-13T19:26:27.399Z,-73
2023-05-13T19:28:56.382Z,-73
2023-05-13T19:31:27.019Z,-73
2023-05-13T19:33:55.636Z,-73
2023-05-13T19:36:26.280Z,-73
2023-05-13T19:38:55.760Z,-74
2023-05-13T19:41:24.328Z,-73
2023-05-13T19:43:52.863Z,-73
2023-05-13T19:46:21.498Z,-74
2023-05-13T19:48:50.267Z,-73
2023-05-13T19:51:19.251Z,-74
2023-05-13T19:53:47.737Z,-74
2023-05-13T19:56:16.232Z,-74
2023-05-13T19:58:45.120Z,-73
2023-05-13T20:01:14.978Z,-74
2023-05-13T20:03:43.645Z,-73
2023-05-13T20:06:12.368Z,-73
2023-05-13T20:08:41.352Z,-74
2023-05-13T20:11:09.803Z,-72
2023-05-13T20:13:38.305Z,-75
2023-05-13T20:16:06.767Z,-76
2023-05-13T20:18:35.460Z,-76
2023-05-13T20:21:04.006Z,-76
2023-05-13T20:23:32.854Z,-76
2023-05-13T20:26:01.539Z,-76
2023-05-13T20:28:30.274Z,-76
2023-05-13T20:30:58.755Z,-76
2023-05-13T20:33:27.371Z,-77
2023-05-13T20:35:56.064Z,-76
2023-05-13T20:38:24.580Z,-76
2023-05-13T20:40:53.212Z,-77
2023-05-13T20:43:21.672Z,-75
2023-05-13T20:45:50.671Z,-76
2023-05-13T20:48:19.269Z,-76
2023-05-13T20:50:47.938Z,-76
2023-05-13T20:53:17.335Z,-76
2023-05-13T20:55:45.934Z,-76
2023-05-13T20:58:14.409Z,-76
2023-05-13T21:00:43.215Z,-76
2023-05-13T21:03:11.723Z,-76
2023-05-13T21:05:40.297Z,-76
2023-05-13T21:08:09.223Z,-77
2023-05-13T21:10:37.757Z,-77
2023-05-13T21:13:06.476Z,-75
2023-05-13T21:15:36.557Z,-77
2023-05-13T21:18:05.015Z,-76
2023-05-13T21:20:33.902Z,-75
2023-05-13T21:23:02.476Z,-76
2023-05-13T21:25:31.015Z,-76
2023-05-13T21:28:00.095Z,-74
2023-05-13T21:30:32.268Z,-74
2023-05-13T21:33:01.237Z,-75
2023-05-13T21:35:29.809Z,-74
2023-05-13T21:38:10.995Z,-76
2023-05-13T21:40:40.348Z,-76
2023-05-13T21:43:08.948Z,-74
2023-05-13T21:45:37.475Z,-75
2023-05-13T21:48:06.782Z,-75
2023-05-13T21:50:36.106Z,-76
2023-05-13T21:53:05.014Z,-76
2023-05-13T21:55:35.027Z,-74
2023-05-13T21:58:03.982Z,-75
2023-05-13T22:00:33.074Z,-74
2023-05-13T22:03:01.846Z,-74
2023-05-13T22:05:30.077Z,-73
2023-05-13T22:08:00.186Z,-74
2023-05-13T22:10:28.973Z,-74
2023-05-13T22:12:57.464Z,-75
2023-05-13T22:15:25.925Z,-75
2023-05-13T22:17:54.752Z,-75
2023-05-13T22:20:23.665Z,-76
2023-05-13T22:22:52.395Z,-76
2023-05-13T22:25:21.249Z,-76
2023-05-13T22:27:51.766Z,-77
2023-05-13T22:30:20.272Z,-77
2023-05-13T22:32:50.448Z,-67
2023-05-13T22:35:18.911Z,-67
2023-05-13T22:37:47.388Z,-67
2023-05-13T22:40:15.905Z,-66
2023-05-13T22:42:44.467Z,-67
2023-05-13T22:45:13.277Z,-67
2023-05-13T22:47:41.499Z,-66
2023-05-13T22:50:12.250Z,-67
2023-05-13T22:52:40.790Z,-67
2023-05-13T22:55:09.783Z,-68
2023-05-13T22:57:38.265Z,-68
2023-05-13T23:00:07.594Z,-67
2023-05-13T23:02:36.108Z,-67
2023-05-13T23:05:04.578Z,-67
2023-05-13T23:07:32.692Z,-67
2023-05-13T23:10:01.153Z,-67
2023-05-13T23:12:29.707Z,-67
2023-05-13T23:14:58.353Z,-67
2023-05-13T23:17:26.527Z,-67
2023-05-13T23:19:54.699Z,-67
2023-05-13T23:22:23.151Z,-67
2023-05-13T23:24:52.529Z,-67
2023-05-13T23:27:21.057Z,-67
2023-05-13T23:29:50.122Z,-67
2023-05-13T23:32:19.149Z,-67
2023-05-13T23:34:47.653Z,-68
2023-05-13T23:37:16.457Z,-69
2023-05-13T23:39:45.319Z,-69
2023-05-13T23:42:13.515Z,-68
2023-05-13T23:44:41.985Z,-69
2023-05-13T23:47:12.014Z,-69
2023-05-13T23:49:40.584Z,-69
2023-05-13T23:52:09.161Z,-68
2023-05-13T23:54:37.637Z,-67
2023-05-13T23:57:06.256Z,-69
2023-05-13T23:59:34.690Z,-68
